aviador You're here:

KOFP Decoded Metar

RICHMOND/HANOVER in VA, USA
Report Time2018-01-18 12:54:00
UTC Time2018-01-18 13:58:40
Flight Rules vfr VFR
WindCalm
Visibility9999 m
Phenomena:N/A
Clouds:N/A
Expected CloudBase > 400 ft AGL from Temp-Dew spread
CeilingNone
Temp-12°C (ISA -27)
Dew Point-13°C (92% RH)
AAT-15.3°C
QNH1023 hPa
Density Alt-3,451 ft
Elevation203 ft
Report Wrong Elevation
Raw Report
KOFP 181254Z AUTO 00000KT 8SM CLR M12/M13 A3022 RMK AO2 SLP236
T11171133=

Extra information for KOFP:More info

Metar Taf Metar & Taf Last 4 Metars F.Rules Stats Wind Profile Meteogram Temp Stats Airport Information Weather charts Add Link Nearby VenuesMetar ALERT Operation Metar Decoded Social comments

AIRNAV info for KOFP